createdAt,value
2018-05-31T00:00:06.299Z,21.10
2018-05-31T00:02:33.825Z,21.20
2018-05-31T00:05:01.343Z,20.90
2018-05-31T00:07:29.683Z,20.80
2018-05-31T00:09:57.210Z,20.70
2018-05-31T00:12:24.728Z,20.80
2018-05-31T00:14:52.251Z,20.80
2018-05-31T00:17:19.774Z,20.80
2018-05-31T00:19:48.055Z,20.80
2018-05-31T00:22:15.621Z,20.70
2018-05-31T00:24:43.170Z,20.70
2018-05-31T00:27:10.696Z,20.80
2018-05-31T00:29:38.222Z,20.80
2018-05-31T00:32:05.741Z,20.70
2018-05-31T00:34:33.283Z,20.70
2018-05-31T00:37:01.560Z,20.60
2018-05-31T00:39:29.876Z,20.60
2018-05-31T00:41:57.407Z,20.50
2018-05-31T00:44:24.915Z,20.60
2018-05-31T00:46:52.450Z,20.50
2018-05-31T00:49:19.979Z,20.50
2018-05-31T00:51:47.500Z,20.50
2018-05-31T00:54:15.759Z,20.50
2018-05-31T00:56:43.275Z,20.40
2018-05-31T00:59:10.822Z,20.50
2018-05-31T01:01:38.345Z,20.50
2018-05-31T01:04:06.758Z,20.40
2018-05-31T01:06:34.269Z,20.40
2018-05-31T01:09:01.840Z,20.40
2018-05-31T01:11:30.132Z,20.30
2018-05-31T01:13:57.651Z,20.20
2018-05-31T01:16:25.165Z,20.20
2018-05-31T01:18:52.698Z,20.10
2018-05-31T01:21:20.215Z,20.10
2018-05-31T01:23:47.758Z,20.00
2018-05-31T01:26:15.420Z,19.90
2018-05-31T01:28:42.944Z,19.90
2018-05-31T01:31:10.454Z,19.70
2018-05-31T01:33:37.954Z,19.70
2018-05-31T01:36:05.499Z,19.50
2018-05-31T01:38:33.033Z,19.50
2018-05-31T01:41:00.542Z,19.40
2018-05-31T01:43:28.083Z,19.30
2018-05-31T01:45:55.631Z,19.30
2018-05-31T01:48:23.139Z,19.20
2018-05-31T01:50:50.661Z,19.00
2018-05-31T01:53:18.175Z,19.00
2018-05-31T01:55:46.469Z,18.90
2018-05-31T01:58:13.984Z,18.90
2018-05-31T02:00:41.517Z,18.90
2018-05-31T02:03:09.029Z,18.80
2018-05-31T02:05:37.325Z,18.80
2018-05-31T02:08:04.855Z,18.70
2018-05-31T02:10:33.151Z,18.60
2018-05-31T02:13:00.735Z,18.60
2018-05-31T02:15:28.376Z,18.50
2018-05-31T02:17:55.950Z,18.50
2018-05-31T02:20:23.458Z,18.40
2018-05-31T02:22:51.751Z,18.50
2018-05-31T02:25:19.323Z,18.50
2018-05-31T02:27:46.866Z,18.40
2018-05-31T02:30:14.445Z,18.40
2018-05-31T02:32:41.966Z,18.30
2018-05-31T02:35:10.258Z,18.30
2018-05-31T02:37:38.562Z,18.20
2018-05-31T02:40:06.092Z,18.20
2018-05-31T02:42:33.621Z,18.20
2018-05-31T02:45:01.958Z,18.20
2018-05-31T02:47:29.465Z,18.20
2018-05-31T02:49:57.776Z,18.30
2018-05-31T02:52:25.276Z,18.20
2018-05-31T02:54:52.819Z,18.20
2018-05-31T02:57:20.349Z,18.20
2018-05-31T02:59:47.875Z,18.10
2018-05-31T03:02:15.567Z,18.00
2018-05-31T03:04:43.103Z,18.00
2018-05-31T03:07:10.681Z,18.00
2018-05-31T03:09:38.226Z,18.00
2018-05-31T03:12:05.744Z,18.00
2018-05-31T03:14:33.332Z,18.00
2018-05-31T03:17:00.885Z,18.10
2018-05-31T03:19:28.466Z,17.90
2018-05-31T03:21:56.017Z,18.10
2018-05-31T03:24:23.628Z,18.10
2018-05-31T03:26:51.961Z,18.00
2018-05-31T03:29:19.505Z,18.00
2018-05-31T03:31:47.042Z,17.90
2018-05-31T03:34:14.538Z,17.90
2018-05-31T03:36:42.084Z,17.90
2018-05-31T03:39:09.638Z,18.00
2018-05-31T03:41:37.226Z,18.00
2018-05-31T03:44:04.807Z,18.00
2018-05-31T03:46:32.301Z,18.00
2018-05-31T03:48:59.822Z,17.90
2018-05-31T03:51:28.120Z,17.90
2018-05-31T03:53:55.663Z,17.90
2018-05-31T03:56:23.946Z,17.70
2018-05-31T03:58:51.481Z,17.70
2018-05-31T04:01:19.790Z,17.90
2018-05-31T04:03:47.372Z,17.90
2018-05-31T04:06:14.898Z,18.00
2018-05-31T04:08:42.540Z,18.00
2018-05-31T04:11:10.088Z,18.00
2018-05-31T04:13:38.355Z,18.10
2018-05-31T04:16:06.733Z,18.10
2018-05-31T04:18:35.172Z,18.00
2018-05-31T04:21:02.706Z,18.00
2018-05-31T04:23:30.263Z,18.10
2018-05-31T04:25:57.802Z,18.20
2018-05-31T04:28:25.340Z,18.20
2018-05-31T04:30:53.667Z,18.30
2018-05-31T04:33:21.818Z,18.30
2018-05-31T04:35:49.321Z,18.30
2018-05-31T04:38:16.852Z,18.40
2018-05-31T04:40:44.385Z,18.50
2018-05-31T04:43:11.901Z,18.50
2018-05-31T04:45:39.428Z,18.60
2018-05-31T04:48:06.981Z,18.50
2018-05-31T04:50:34.494Z,18.50
2018-05-31T04:53:02.806Z,18.70
2018-05-31T04:55:30.330Z,18.60
2018-05-31T04:57:57.830Z,18.90
2018-05-31T05:00:25.361Z,18.90
2018-05-31T05:02:52.972Z,19.00
2018-05-31T05:05:20.495Z,19.10
2018-05-31T05:07:48.007Z,19.20
2018-05-31T05:10:15.541Z,19.50
2018-05-31T05:12:43.142Z,20.60
2018-05-31T05:15:10.653Z,21.90
2018-05-31T05:17:38.151Z,22.80
2018-05-31T05:20:05.744Z,23.50
2018-05-31T05:22:33.290Z,23.90
2018-05-31T05:25:00.908Z,24.50
2018-05-31T05:27:28.423Z,24.80
2018-05-31T05:29:55.950Z,25.20
2018-05-31T05:32:23.510Z,25.70
2018-05-31T05:34:51.019Z,26.00
2018-05-31T05:37:18.526Z,26.30
2018-05-31T05:39:46.078Z,26.30
2018-05-31T05:42:13.658Z,26.30
2018-05-31T05:44:41.176Z,26.50
2018-05-31T05:47:08.701Z,26.80
2018-05-31T05:49:36.982Z,27.10
2018-05-31T05:52:05.314Z,27.50
2018-05-31T05:54:32.828Z,27.50
2018-05-31T05:57:01.133Z,27.70
2018-05-31T05:59:28.705Z,27.70
2018-05-31T06:01:56.286Z,27.90
2018-05-31T06:04:23.787Z,28.20
2018-05-31T06:06:51.298Z,28.50
2018-05-31T06:09:18.945Z,28.60
2018-05-31T06:11:46.534Z,28.40
2018-05-31T06:14:14.838Z,28.00
2018-05-31T06:16:42.384Z,27.90
2018-05-31T06:19:09.972Z,28.20
2018-05-31T06:21:37.501Z,28.20
2018-05-31T06:24:05.081Z,28.20
2018-05-31T06:26:32.667Z,27.80
2018-05-31T06:29:00.899Z,28.10
2018-05-31T06:31:28.445Z,28.10
2018-05-31T06:33:56.726Z,28.00
2018-05-31T06:36:24.275Z,28.00
2018-05-31T06:38:52.672Z,28.20
2018-05-31T06:41:20.189Z,28.20
2018-05-31T06:43:47.684Z,27.60
2018-05-31T06:46:15.233Z,27.30
2018-05-31T06:48:42.731Z,26.90
2018-05-31T06:51:10.253Z,27.50
2018-05-31T06:53:37.767Z,27.70
2018-05-31T06:56:05.268Z,27.70
2018-05-31T06:58:33.036Z,28.30
2018-05-31T07:01:00.516Z,28.50
2018-05-31T07:03:28.049Z,28.50
2018-05-31T07:05:55.584Z,28.70
2018-05-31T07:08:23.184Z,28.60
2018-05-31T07:10:50.711Z,28.70
2018-05-31T07:13:18.239Z,28.70
2018-05-31T07:15:46.519Z,29.00
2018-05-31T07:18:14.768Z,28.80
2018-05-31T07:20:42.293Z,28.80
2018-05-31T07:23:09.812Z,28.40
2018-05-31T07:25:38.087Z,27.90
2018-05-31T07:28:06.438Z,28.20
2018-05-31T07:30:33.953Z,28.20
2018-05-31T07:33:01.488Z,28.20
2018-05-31T07:35:29.025Z,28.00
2018-05-31T07:37:57.307Z,27.80
2018-05-31T07:40:25.562Z,28.10
2018-05-31T07:42:53.088Z,28.00
2018-05-31T07:45:20.579Z,27.70
2018-05-31T07:47:48.924Z,28.40
2018-05-31T07:50:16.549Z,28.40
2018-05-31T07:52:44.088Z,28.80
2018-05-31T07:55:12.495Z,29.00
2018-05-31T07:57:40.021Z,29.00
2018-05-31T08:00:07.553Z,29.30
2018-05-31T08:02:35.082Z,29.20
2018-05-31T08:05:02.576Z,29.20
2018-05-31T08:07:30.885Z,29.10
2018-05-31T08:09:58.419Z,29.00
2018-05-31T08:12:26.682Z,29.30
2018-05-31T08:14:54.989Z,29.10
2018-05-31T08:17:22.486Z,29.00
2018-05-31T08:19:50.095Z,29.10
2018-05-31T08:22:17.620Z,28.90
2018-05-31T08:24:45.156Z,28.70
2018-05-31T08:27:12.682Z,28.40
2018-05-31T08:29:40.232Z,29.00
2018-05-31T08:32:07.778Z,29.40
2018-05-31T08:34:35.281Z,29.00
2018-05-31T08:37:02.810Z,29.10
2018-05-31T08:39:30.322Z,29.30
2018-05-31T08:41:58.599Z,29.30
2018-05-31T08:44:26.892Z,29.20
2018-05-31T08:46:54.458Z,29.10
2018-05-31T08:49:22.021Z,29.00
2018-05-31T08:51:49.519Z,29.20
2018-05-31T08:54:17.117Z,29.30
2018-05-31T08:56:44.622Z,29.70
2018-05-31T08:59:12.156Z,29.90
2018-05-31T09:01:39.905Z,29.70
2018-05-31T09:04:07.467Z,29.50
2018-05-31T09:06:35.006Z,29.20
2018-05-31T09:09:02.564Z,29.10
2018-05-31T09:11:30.088Z,29.40
2018-05-31T09:13:57.605Z,29.60
2018-05-31T09:16:25.151Z,29.60
2018-05-31T09:18:52.664Z,29.60
2018-05-31T09:21:21.162Z,29.50
2018-05-31T09:23:48.672Z,29.50
2018-05-31T09:26:16.870Z,29.60
2018-05-31T09:28:44.588Z,29.40
2018-05-31T09:31:12.150Z,29.60
2018-05-31T09:33:39.661Z,29.90
2018-05-31T09:36:07.981Z,29.40
2018-05-31T09:38:35.484Z,29.40
2018-05-31T09:41:03.748Z,29.10
2018-05-31T09:43:32.528Z,29.10
2018-05-31T09:46:00.042Z,29.10
2018-05-31T09:48:27.566Z,29.00
2018-05-31T09:50:55.937Z,29.50
2018-05-31T09:53:25.131Z,29.80
2018-05-31T09:55:53.438Z,29.90
2018-05-31T09:58:20.944Z,29.90
2018-05-31T10:00:48.545Z,30.20
2018-05-31T10:03:16.103Z,30.20
2018-05-31T10:05:43.647Z,30.40
2018-05-31T10:08:11.147Z,30.80
2018-05-31T10:10:38.685Z,30.80
2018-05-31T10:13:06.198Z,30.80
2018-05-31T10:15:34.563Z,30.80
2018-05-31T10:18:02.267Z,30.70
2018-05-31T10:20:29.758Z,30.90
2018-05-31T10:22:57.372Z,31.00
2018-05-31T10:25:24.908Z,31.00
2018-05-31T10:27:53.205Z,30.50
2018-05-31T10:30:20.707Z,30.50
2018-05-31T10:32:48.252Z,29.90
2018-05-31T10:35:15.985Z,29.60
2018-05-31T10:37:43.488Z,29.40
2018-05-31T10:40:11.030Z,29.20
2018-05-31T10:42:38.526Z,29.70
2018-05-31T10:45:06.793Z,30.00
2018-05-31T10:47:35.211Z,30.20
2018-05-31T10:50:02.724Z,30.10
2018-05-31T10:52:31.297Z,30.10
2018-05-31T10:54:59.583Z,30.10
2018-05-31T10:57:27.844Z,30.00
2018-05-31T10:59:56.265Z,30.30
2018-05-31T11:02:23.755Z,30.20
2018-05-31T11:04:51.243Z,30.80
2018-05-31T11:07:19.546Z,30.00
2018-05-31T11:09:47.043Z,30.00
2018-05-31T11:12:14.691Z,30.10
2018-05-31T11:14:42.176Z,30.40
2018-05-31T11:17:09.669Z,30.50
2018-05-31T11:19:37.212Z,30.30
2018-05-31T11:22:04.736Z,30.20
2018-05-31T11:24:32.296Z,30.20
2018-05-31T11:27:00.593Z,30.10
2018-05-31T11:29:28.878Z,30.20
2018-05-31T11:31:56.386Z,30.10
2018-05-31T11:34:23.938Z,30.30
2018-05-31T11:36:51.573Z,30.70
2018-05-31T11:39:19.132Z,30.90
2018-05-31T11:41:46.709Z,30.90
2018-05-31T11:44:14.215Z,31.00
2018-05-31T11:46:41.813Z,30.50
2018-05-31T11:49:09.310Z,30.30
2018-05-31T11:51:37.610Z,30.10
2018-05-31T11:54:05.181Z,30.00
2018-05-31T11:56:32.675Z,30.10
2018-05-31T11:59:00.196Z,30.10
2018-05-31T12:01:27.751Z,29.90
2018-05-31T12:03:55.267Z,30.00
2018-05-31T12:06:23.672Z,30.30
2018-05-31T12:08:51.241Z,30.30
2018-05-31T12:11:18.781Z,30.10
2018-05-31T12:13:46.334Z,30.20
2018-05-31T12:16:13.833Z,30.30
2018-05-31T12:18:41.376Z,29.90
2018-05-31T12:21:08.900Z,30.20
2018-05-31T12:23:36.734Z,30.30
2018-05-31T12:26:05.019Z,30.40
2018-05-31T12:28:33.318Z,30.40
2018-05-31T12:31:00.842Z,30.40
2018-05-31T12:33:29.159Z,30.60
2018-05-31T12:35:56.720Z,30.50
2018-05-31T12:38:24.227Z,30.50
2018-05-31T12:40:51.817Z,30.70
2018-05-31T12:43:19.384Z,30.80
2018-05-31T12:45:46.946Z,30.90
2018-05-31T12:48:14.471Z,30.50
2018-05-31T12:50:42.797Z,30.50
2018-05-31T12:53:10.313Z,30.40
2018-05-31T12:55:37.872Z,30.40
2018-05-31T12:58:05.411Z,30.40
2018-05-31T13:00:33.693Z,29.90
2018-05-31T13:03:01.272Z,29.90
2018-05-31T13:05:28.810Z,30.10
2018-05-31T13:07:57.065Z,30.20
2018-05-31T13:10:24.569Z,30.10
2018-05-31T13:12:52.200Z,30.40
2018-05-31T13:15:19.739Z,30.10
2018-05-31T13:17:47.411Z,29.90
2018-05-31T13:20:15.714Z,29.00
2018-05-31T13:22:43.256Z,28.90
2018-05-31T13:25:10.871Z,28.90
2018-05-31T13:27:38.405Z,28.80
2018-05-31T13:30:05.938Z,28.70
2018-05-31T13:32:33.486Z,28.70
2018-05-31T13:35:01.001Z,28.70
2018-05-31T13:37:28.626Z,28.70
2018-05-31T13:39:56.188Z,28.70
2018-05-31T13:42:23.704Z,28.50
2018-05-31T13:44:52.024Z,28.00
2018-05-31T13:47:19.575Z,27.90
2018-05-31T13:49:47.074Z,27.80
2018-05-31T13:52:15.321Z,28.00
2018-05-31T13:54:42.848Z,28.00
2018-05-31T13:57:10.369Z,28.10
2018-05-31T13:59:38.653Z,28.10
2018-05-31T14:02:06.936Z,28.20
2018-05-31T14:04:34.487Z,28.10
2018-05-31T14:07:02.010Z,28.10
2018-05-31T14:09:29.609Z,28.20
2018-05-31T14:11:57.840Z,28.50
2018-05-31T14:14:25.561Z,28.50
2018-05-31T14:16:53.136Z,28.70
2018-05-31T14:19:20.772Z,28.90
2018-05-31T14:21:48.315Z,28.50
2018-05-31T14:24:15.992Z,28.50
2018-05-31T14:26:43.492Z,28.40
2018-05-31T14:29:11.000Z,28.40
2018-05-31T14:31:38.524Z,28.30
2018-05-31T14:34:06.775Z,28.00
2018-05-31T14:36:34.333Z,28.00
2018-05-31T14:39:01.836Z,27.60
2018-05-31T14:41:29.547Z,27.50
2018-05-31T14:43:57.089Z,27.50
2018-05-31T14:46:24.585Z,27.70
2018-05-31T14:48:52.896Z,28.40
2018-05-31T14:51:20.410Z,28.40
2018-05-31T14:53:48.676Z,28.80
2018-05-31T14:56:16.997Z,28.70
2018-05-31T14:58:44.503Z,28.70
2018-05-31T15:01:12.090Z,28.60
2018-05-31T15:03:39.640Z,28.40
2018-05-31T15:06:07.158Z,28.40
2018-05-31T15:08:34.720Z,28.40
2018-05-31T15:11:02.410Z,28.30
2018-05-31T15:13:29.937Z,27.90
2018-05-31T15:15:57.725Z,28.00
2018-05-31T15:18:25.255Z,27.90
2018-05-31T15:20:52.750Z,28.10
2018-05-31T15:23:20.277Z,28.10
2018-05-31T15:25:47.769Z,27.90
2018-05-31T15:28:15.302Z,27.60
2018-05-31T15:30:43.577Z,27.40
2018-05-31T15:33:11.882Z,27.20
2018-05-31T15:35:39.419Z,27.10
2018-05-31T15:38:06.996Z,27.20
2018-05-31T15:40:34.511Z,27.20
2018-05-31T15:43:02.792Z,27.20
2018-05-31T15:45:31.146Z,27.10
2018-05-31T15:47:58.642Z,27.10
2018-05-31T15:50:26.307Z,27.20
2018-05-31T15:52:53.810Z,27.20
2018-05-31T15:55:21.430Z,27.40
2018-05-31T15:57:48.985Z,27.40
2018-05-31T16:00:16.472Z,27.30
2018-05-31T16:02:43.976Z,27.20
2018-05-31T16:05:11.534Z,27.30
2018-05-31T16:07:39.062Z,27.20
2018-05-31T16:10:06.564Z,27.20
2018-05-31T16:12:34.067Z,27.00
2018-05-31T16:15:01.894Z,26.70
2018-05-31T16:17:29.756Z,26.80
2018-05-31T16:19:57.318Z,26.80
2018-05-31T16:22:24.822Z,26.80
2018-05-31T16:24:53.110Z,26.20
2018-05-31T16:27:20.608Z,26.10
2018-05-31T16:29:48.126Z,25.60
2018-05-31T16:32:16.405Z,25.00
2018-05-31T16:34:43.928Z,24.90
2018-05-31T16:37:11.465Z,24.70
2018-05-31T16:39:39.083Z,24.40
2018-05-31T16:42:06.571Z,24.50
2018-05-31T16:44:34.063Z,24.30
2018-05-31T16:47:01.588Z,24.10
2018-05-31T16:49:29.084Z,24.10
2018-05-31T16:51:57.342Z,24.30
2018-05-31T16:54:24.858Z,24.20
2018-05-31T16:56:52.465Z,24.40
2018-05-31T16:59:20.821Z,24.60
2018-05-31T17:01:48.286Z,24.50
2018-05-31T17:04:15.791Z,24.50
2018-05-31T17:06:43.306Z,24.40
2018-05-31T17:09:11.627Z,24.40
2018-05-31T17:11:39.140Z,24.40
2018-05-31T17:14:07.404Z,24.30
2018-05-31T17:16:34.926Z,24.20
2018-05-31T17:19:02.450Z,24.10
2018-05-31T17:21:30.006Z,24.20
2018-05-31T17:23:57.557Z,24.10
2018-05-31T17:26:25.050Z,23.80
2018-05-31T17:28:52.574Z,23.70
2018-05-31T17:31:20.148Z,23.60
2018-05-31T17:33:47.668Z,23.70
2018-05-31T17:36:15.945Z,23.90
2018-05-31T17:38:44.252Z,23.40
2018-05-31T17:41:11.762Z,23.30
2018-05-31T17:43:39.281Z,23.40
2018-05-31T17:46:06.789Z,23.50
2018-05-31T17:48:35.069Z,23.70
2018-05-31T17:51:03.356Z,23.80
2018-05-31T17:53:30.860Z,23.80
2018-05-31T17:55:58.384Z,23.80
2018-05-31T17:58:26.041Z,23.80
2018-05-31T18:00:53.596Z,23.80
2018-05-31T18:03:21.138Z,23.80
2018-05-31T18:05:48.681Z,23.90
2018-05-31T18:08:16.962Z,23.70
2018-05-31T18:10:45.224Z,23.60
2018-05-31T18:13:13.499Z,23.40
2018-05-31T18:15:41.778Z,23.40
2018-05-31T18:18:10.168Z,23.40
2018-05-31T18:20:37.653Z,23.40
2018-05-31T18:23:05.300Z,23.30
2018-05-31T18:25:32.857Z,23.20
2018-05-31T18:28:00.375Z,23.00
2018-05-31T18:30:28.686Z,23.10
2018-05-31T18:32:56.212Z,23.00
2018-05-31T18:35:24.494Z,22.60
2018-05-31T18:37:52.073Z,22.60
2018-05-31T18:40:19.578Z,22.40
2018-05-31T18:42:47.322Z,22.30
2018-05-31T18:45:14.832Z,22.30
2018-05-31T18:47:42.350Z,22.30
2018-05-31T18:50:09.968Z,22.40
2018-05-31T18:52:37.492Z,22.50
2018-05-31T18:55:05.778Z,22.50
2018-05-31T18:57:33.353Z,22.40
2018-05-31T19:00:00.860Z,22.40
2018-05-31T19:02:29.136Z,22.50
2018-05-31T19:04:57.423Z,22.50
2018-05-31T19:07:25.866Z,22.50
2018-05-31T19:09:53.382Z,22.50
2018-05-31T19:12:26.533Z,22.60
2018-05-31T19:14:54.841Z,22.50
2018-05-31T19:17:22.395Z,22.50
2018-05-31T19:19:54.790Z,22.50
2018-05-31T19:22:22.749Z,22.30
2018-05-31T19:24:56.038Z,22.00
2018-05-31T19:27:23.545Z,22.00
2018-05-31T19:29:51.058Z,21.90
2018-05-31T19:32:18.680Z,22.00
2018-05-31T19:34:46.158Z,22.00
2018-05-31T19:37:14.479Z,22.00
2018-05-31T19:39:42.043Z,21.90
2018-05-31T19:42:15.276Z,21.80
2018-05-31T19:44:42.868Z,21.80
2018-05-31T19:47:12.015Z,21.60
2018-05-31T19:49:39.542Z,21.60
2018-05-31T19:52:13.462Z,21.30
2018-05-31T19:54:41.755Z,21.40
2018-05-31T19:57:09.357Z,21.40
2018-05-31T19:59:42.517Z,21.50
2018-05-31T20:02:15.811Z,21.30
2018-05-31T20:04:43.394Z,21.30
2018-05-31T20:07:10.906Z,21.20
2018-05-31T20:09:38.488Z,21.00
2018-05-31T20:12:06.019Z,20.80
2018-05-31T20:14:33.528Z,20.70
2018-05-31T20:17:01.039Z,20.60
2018-05-31T20:19:28.548Z,20.40
2018-05-31T20:21:56.139Z,20.40
2018-05-31T20:24:23.682Z,20.40
2018-05-31T20:26:51.957Z,20.30
2018-05-31T20:29:20.236Z,20.30
2018-05-31T20:31:48.533Z,20.30
2018-05-31T20:34:16.047Z,20.30
2018-05-31T20:36:43.562Z,20.40
2018-05-31T20:39:11.292Z,20.20
2018-05-31T20:41:38.878Z,20.10
2018-05-31T20:44:06.392Z,20.20
2018-05-31T20:46:34.671Z,20.10
2018-05-31T20:49:02.943Z,20.10
2018-05-31T20:51:31.249Z,19.80
2018-05-31T20:53:58.785Z,19.70
2018-05-31T20:56:26.383Z,19.70
2018-05-31T20:58:53.898Z,19.70
2018-05-31T21:01:22.174Z,19.60
2018-05-31T21:03:49.686Z,19.60
2018-05-31T21:06:17.200Z,19.70
2018-05-31T21:08:44.710Z,19.60
2018-05-31T21:11:12.219Z,19.80
2018-05-31T21:13:39.777Z,19.80
2018-05-31T21:16:07.436Z,20.00
2018-05-31T21:18:34.929Z,20.10
2018-05-31T21:21:02.426Z,20.20
2018-05-31T21:23:30.691Z,20.30
2018-05-31T21:25:58.971Z,20.20
2018-05-31T21:28:26.467Z,20.20
2018-05-31T21:30:53.997Z,20.20
2018-05-31T21:33:21.519Z,20.10
2018-05-31T21:35:49.136Z,20.00
2018-05-31T21:38:16.677Z,19.90
2018-05-31T21:40:44.183Z,19.90
2018-05-31T21:43:11.679Z,20.00
2018-05-31T21:45:39.226Z,20.10
2018-05-31T21:48:06.742Z,20.30
2018-05-31T21:50:34.256Z,20.30
2018-05-31T21:53:01.771Z,20.30
2018-05-31T21:55:29.377Z,20.20
2018-05-31T21:57:56.888Z,20.00
2018-05-31T22:00:40.162Z,19.90
2018-05-31T22:03:07.712Z,19.90
2018-05-31T22:05:35.205Z,19.90
2018-05-31T22:08:02.825Z,20.00
2018-05-31T22:10:30.340Z,19.80
2018-05-31T22:12:58.654Z,19.70
2018-05-31T22:15:26.184Z,19.60
2018-05-31T22:17:54.497Z,19.60
2018-05-31T22:20:22.057Z,19.60
2018-05-31T22:22:49.559Z,19.50
2018-05-31T22:25:17.066Z,19.50
2018-05-31T22:27:44.584Z,19.50
2018-05-31T22:30:12.878Z,19.10
2018-05-31T22:32:40.433Z,19.10
2018-05-31T22:35:07.979Z,19.20
2018-05-31T22:37:36.249Z,19.40
2018-05-31T22:40:04.531Z,19.40
2018-05-31T22:42:32.829Z,19.30
2018-05-31T22:45:00.326Z,19.30
2018-05-31T22:47:27.847Z,19.20
2018-05-31T22:49:55.368Z,19.10
2018-05-31T22:52:23.632Z,19.00
2018-05-31T22:54:51.899Z,19.00
2018-05-31T22:57:19.424Z,19.00
2018-05-31T22:59:47.060Z,18.90
2018-05-31T23:02:14.580Z,19.00
2018-05-31T23:04:42.873Z,19.00
2018-05-31T23:07:10.392Z,18.90
2018-05-31T23:09:37.897Z,19.00
2018-05-31T23:12:05.423Z,19.00
2018-05-31T23:14:33.704Z,19.10
2018-05-31T23:17:01.966Z,19.00
2018-05-31T23:19:30.234Z,19.00
2018-05-31T23:21:57.753Z,18.90
2018-05-31T23:24:25.252Z,18.90
2018-05-31T23:26:53.532Z,19.00
2018-05-31T23:29:21.800Z,18.90
2018-05-31T23:31:50.097Z,19.00
2018-05-31T23:34:17.680Z,19.00
2018-05-31T23:36:45.238Z,19.00
2018-05-31T23:39:12.743Z,19.10
2018-05-31T23:41:41.061Z,19.10
2018-05-31T23:44:08.765Z,19.00
2018-05-31T23:46:37.065Z,19.10
2018-05-31T23:49:05.372Z,19.20
2018-05-31T23:51:32.871Z,19.10
2018-05-31T23:54:00.370Z,19.10
2018-05-31T23:56:27.861Z,19.10
2018-05-31T23:58:55.433Z,19.10
